sensor_id;sensor_type;location;lat;lon;timestamp;temperature;humidity
13346;DHT22;6742;48.036;15.780;2023-06-01T00:02:24;13.90;99.90
13346;DHT22;6742;48.036;15.780;2023-06-01T00:04:51;13.90;99.90
13346;DHT22;6742;48.036;15.780;2023-06-01T00:07:18;13.90;99.90
13346;DHT22;6742;48.036;15.780;2023-06-01T00:09:46;13.80;99.90
13346;DHT22;6742;48.036;15.780;2023-06-01T00:12:13;13.80;99.90
13346;DHT22;6742;48.036;15.780;2023-06-01T00:14:40;13.70;99.90
13346;DHT22;6742;48.036;15.780;2023-06-01T00:17:07;13.70;99.90
13346;DHT22;6742;48.036;15.780;2023-06-01T00:19:36;13.60;99.90
13346;DHT22;6742;48.036;15.780;2023-06-01T00:22:04;13.60;99.90
13346;DHT22;6742;48.036;15.780;2023-06-01T00:24:32;13.50;99.90
13346;DHT22;6742;48.036;15.780;2023-06-01T00:26:59;13.50;99.90
13346;DHT22;6742;48.036;15.780;2023-06-01T00:29:27;13.50;99.90
13346;DHT22;6742;48.036;15.780;2023-06-01T00:31:54;13.50;99.90
13346;DHT22;6742;48.036;15.780;2023-06-01T00:34:21;13.50;99.90
13346;DHT22;6742;48.036;15.780;2023-06-01T00:36:49;13.40;99.90
13346;DHT22;6742;48.036;15.780;2023-06-01T00:39:16;13.40;99.90
13346;DHT22;6742;48.036;15.780;2023-06-01T00:41:44;13.40;99.90
13346;DHT22;6742;48.036;15.780;2023-06-01T00:44:11;13.40;99.90
13346;DHT22;6742;48.036;15.780;2023-06-01T00:46:38;13.30;99.90
13346;DHT22;6742;48.036;15.780;2023-06-01T00:49:06;13.30;99.90
13346;DHT22;6742;48.036;15.780;2023-06-01T00:51:34;13.20;99.90
13346;DHT22;6742;48.036;15.780;2023-06-01T00:54:02;13.20;99.90
13346;DHT22;6742;48.036;15.780;2023-06-01T00:56:30;13.10;99.90
13346;DHT22;6742;48.036;15.780;2023-06-01T00:58:59;13.10;99.90
13346;DHT22;6742;48.036;15.780;2023-06-01T01:01:26;13.10;99.90
13346;DHT22;6742;48.036;15.780;2023-06-01T01:03:53;13.00;99.90
13346;DHT22;6742;48.036;15.780;2023-06-01T01:06:31;13.00;99.90
13346;DHT22;6742;48.036;15.780;2023-06-01T01:09:13;13.00;99.90
13346;DHT22;6742;48.036;15.780;2023-06-01T01:11:51;12.90;99.90
13346;DHT22;6742;48.036;15.780;2023-06-01T01:14:22;12.90;99.90
13346;DHT22;6742;48.036;15.780;2023-06-01T01:16:53;12.90;99.90
13346;DHT22;6742;48.036;15.780;2023-06-01T01:19:35;12.80;99.90
13346;DHT22;6742;48.036;15.780;2023-06-01T01:22:17;12.80;99.90
13346;DHT22;6742;48.036;15.780;2023-06-01T01:25:02;12.80;99.90
13346;DHT22;6742;48.036;15.780;2023-06-01T01:27:45;12.80;99.90
13346;DHT22;6742;48.036;15.780;2023-06-01T01:30:22;12.70;99.90
13346;DHT22;6742;48.036;15.780;2023-06-01T01:32:54;12.70;99.90
13346;DHT22;6742;48.036;15.780;2023-06-01T01:35:23;12.70;99.90
13346;DHT22;6742;48.036;15.780;2023-06-01T01:37:50;12.70;99.90
13346;DHT22;6742;48.036;15.780;2023-06-01T01:40:18;12.60;99.90
13346;DHT22;6742;48.036;15.780;2023-06-01T01:42:45;12.60;99.90
13346;DHT22;6742;48.036;15.780;2023-06-01T01:45:13;12.60;99.90
13346;DHT22;6742;48.036;15.780;2023-06-01T01:47:49;12.60;99.90
13346;DHT22;6742;48.036;15.780;2023-06-01T01:50:21;12.50;99.90
13346;DHT22;6742;48.036;15.780;2023-06-01T01:52:49;12.40;99.90
13346;DHT22;6742;48.036;15.780;2023-06-01T01:55:17;12.40;99.90
13346;DHT22;6742;48.036;15.780;2023-06-01T01:57:50;12.40;99.90
13346;DHT22;6742;48.036;15.780;2023-06-01T02:00:17;12.40;99.90
13346;DHT22;6742;48.036;15.780;2023-06-01T02:02:46;12.40;99.90
13346;DHT22;6742;48.036;15.780;2023-06-01T02:05:13;12.40;99.90
13346;DHT22;6742;48.036;15.780;2023-06-01T02:07:40;12.30;99.90
13346;DHT22;6742;48.036;15.780;2023-06-01T02:10:07;12.30;99.90
13346;DHT22;6742;48.036;15.780;2023-06-01T02:12:34;12.30;99.90
13346;DHT22;6742;48.036;15.780;2023-06-01T02:15:01;12.30;99.90
13346;DHT22;6742;48.036;15.780;2023-06-01T02:17:28;12.30;99.90
13346;DHT22;6742;48.036;15.780;2023-06-01T02:19:57;12.20;99.90
13346;DHT22;6742;48.036;15.780;2023-06-01T02:22:24;12.20;99.90
13346;DHT22;6742;48.036;15.780;2023-06-01T02:24:51;12.20;99.90
13346;DHT22;6742;48.036;15.780;2023-06-01T02:27:18;12.10;99.90
13346;DHT22;6742;48.036;15.780;2023-06-01T02:29:45;12.10;99.90
13346;DHT22;6742;48.036;15.780;2023-06-01T02:32:12;12.10;99.90
13346;DHT22;6742;48.036;15.780;2023-06-01T02:34:41;12.10;99.90
13346;DHT22;6742;48.036;15.780;2023-06-01T02:37:10;12.10;99.90
13346;DHT22;6742;48.036;15.780;2023-06-01T02:39:37;12.00;99.90
13346;DHT22;6742;48.036;15.780;2023-06-01T02:42:04;12.00;99.90
13346;DHT22;6742;48.036;15.780;2023-06-01T02:44:31;11.90;99.90
13346;DHT22;6742;48.036;15.780;2023-06-01T02:46:58;11.90;99.90
13346;DHT22;6742;48.036;15.780;2023-06-01T02:49:25;11.90;99.90
13346;DHT22;6742;48.036;15.780;2023-06-01T02:51:52;11.90;99.90
13346;DHT22;6742;48.036;15.780;2023-06-01T02:54:20;11.90;99.90
13346;DHT22;6742;48.036;15.780;2023-06-01T02:56:47;11.90;99.90
13346;DHT22;6742;48.036;15.780;2023-06-01T02:59:17;11.80;99.90
13346;DHT22;6742;48.036;15.780;2023-06-01T03:01:44;11.80;99.90
13346;DHT22;6742;48.036;15.780;2023-06-01T03:04:11;11.80;99.90
13346;DHT22;6742;48.036;15.780;2023-06-01T03:06:38;11.70;99.90
13346;DHT22;6742;48.036;15.780;2023-06-01T03:09:06;11.70;99.90
13346;DHT22;6742;48.036;15.780;2023-06-01T03:11:39;11.70;99.90
13346;DHT22;6742;48.036;15.780;2023-06-01T03:14:07;11.60;99.90
13346;DHT22;6742;48.036;15.780;2023-06-01T03:16:33;11.60;99.90
13346;DHT22;6742;48.036;15.780;2023-06-01T03:19:01;11.70;99.90
13346;DHT22;6742;48.036;15.780;2023-06-01T03:21:28;11.60;99.90
13346;DHT22;6742;48.036;15.780;2023-06-01T03:23:57;11.60;99.90
13346;DHT22;6742;48.036;15.780;2023-06-01T03:26:23;11.60;99.90
13346;DHT22;6742;48.036;15.780;2023-06-01T03:28:52;11.60;99.90
13346;DHT22;6742;48.036;15.780;2023-06-01T03:31:19;11.60;99.90
13346;DHT22;6742;48.036;15.780;2023-06-01T03:33:46;11.50;99.90
13346;DHT22;6742;48.036;15.780;2023-06-01T03:36:13;11.50;99.90
13346;DHT22;6742;48.036;15.780;2023-06-01T03:38:40;11.50;99.90
13346;DHT22;6742;48.036;15.780;2023-06-01T03:41:08;11.50;99.90
13346;DHT22;6742;48.036;15.780;2023-06-01T03:43:35;11.50;99.90
13346;DHT22;6742;48.036;15.780;2023-06-01T03:46:04;11.50;99.90
13346;DHT22;6742;48.036;15.780;2023-06-01T03:48:31;11.50;99.90
13346;DHT22;6742;48.036;15.780;2023-06-01T03:50:58;11.50;99.90
13346;DHT22;6742;48.036;15.780;2023-06-01T03:53:25;11.50;99.90
13346;DHT22;6742;48.036;15.780;2023-06-01T03:55:52;11.50;99.90
13346;DHT22;6742;48.036;15.780;2023-06-01T03:58:20;11.40;99.90
13346;DHT22;6742;48.036;15.780;2023-06-01T04:00:49;11.40;99.90
13346;DHT22;6742;48.036;15.780;2023-06-01T04:03:17;11.40;99.90
13346;DHT22;6742;48.036;15.780;2023-06-01T04:05:47;11.50;99.90
13346;DHT22;6742;48.036;15.780;2023-06-01T04:08:15;11.50;99.90
13346;DHT22;6742;48.036;15.780;2023-06-01T04:10:43;11.50;99.90
13346;DHT22;6742;48.036;15.780;2023-06-01T04:13:10;11.60;99.90
13346;DHT22;6742;48.036;15.780;2023-06-01T04:15:37;11.60;99.90
13346;DHT22;6742;48.036;15.780;2023-06-01T04:18:04;11.60;99.90
13346;DHT22;6742;48.036;15.780;2023-06-01T04:20:33;11.60;99.90
13346;DHT22;6742;48.036;15.780;2023-06-01T04:23:00;11.70;99.90
13346;DHT22;6742;48.036;15.780;2023-06-01T04:25:27;11.80;99.90
13346;DHT22;6742;48.036;15.780;2023-06-01T04:27:56;13.30;99.90
13346;DHT22;6742;48.036;15.780;2023-06-01T04:30:23;15.30;99.90
13346;DHT22;6742;48.036;15.780;2023-06-01T04:32:50;16.80;99.90
13346;DHT22;6742;48.036;15.780;2023-06-01T04:35:19;17.90;98.30
13346;DHT22;6742;48.036;15.780;2023-06-01T04:37:47;18.60;96.80
13346;DHT22;6742;48.036;15.780;2023-06-01T04:40:15;19.10;95.70
13346;DHT22;6742;48.036;15.780;2023-06-01T04:42:43;19.30;95.20
13346;DHT22;6742;48.036;15.780;2023-06-01T04:45:15;17.90;95.90
13346;DHT22;6742;48.036;15.780;2023-06-01T04:47:42;16.40;98.20
13346;DHT22;6742;48.036;15.780;2023-06-01T04:50:13;17.10;98.60
13346;DHT22;6742;48.036;15.780;2023-06-01T04:52:41;18.30;96.90
13346;DHT22;6742;48.036;15.780;2023-06-01T04:55:11;19.10;95.60
13346;DHT22;6742;48.036;15.780;2023-06-01T04:57:39;19.50;94.90
13346;DHT22;6742;48.036;15.780;2023-06-01T05:00:09;19.80;94.70
13346;DHT22;6742;48.036;15.780;2023-06-01T05:02:36;20.00;94.40
13346;DHT22;6742;48.036;15.780;2023-06-01T05:05:05;20.10;94.30
13346;DHT22;6742;48.036;15.780;2023-06-01T05:10:08;20.20;93.80
13346;DHT22;6742;48.036;15.780;2023-06-01T05:12:37;20.20;94.00
13346;DHT22;6742;48.036;15.780;2023-06-01T05:15:05;20.30;94.40
13346;DHT22;6742;48.036;15.780;2023-06-01T05:17:33;20.50;93.50
13346;DHT22;6742;48.036;15.780;2023-06-01T05:20:00;20.50;93.80
13346;DHT22;6742;48.036;15.780;2023-06-01T05:22:27;20.50;93.80
13346;DHT22;6742;48.036;15.780;2023-06-01T05:24:54;20.50;93.70
13346;DHT22;6742;48.036;15.780;2023-06-01T05:27:22;20.30;94.10
13346;DHT22;6742;48.036;15.780;2023-06-01T05:29:50;20.20;94.30
13346;DHT22;6742;48.036;15.780;2023-06-01T05:32:17;20.30;94.50
13346;DHT22;6742;48.036;15.780;2023-06-01T05:34:44;20.30;94.50
13346;DHT22;6742;48.036;15.780;2023-06-01T05:37:12;20.30;94.10
13346;DHT22;6742;48.036;15.780;2023-06-01T05:39:39;20.40;94.70
13346;DHT22;6742;48.036;15.780;2023-06-01T05:42:06;20.50;94.20
13346;DHT22;6742;48.036;15.780;2023-06-01T05:44:33;20.60;94.30
13346;DHT22;6742;48.036;15.780;2023-06-01T05:47:01;20.50;94.90
13346;DHT22;6742;48.036;15.780;2023-06-01T05:49:28;20.40;96.00
13346;DHT22;6742;48.036;15.780;2023-06-01T05:51:57;20.40;95.90
13346;DHT22;6742;48.036;15.780;2023-06-01T05:54:24;20.30;96.10
13346;DHT22;6742;48.036;15.780;2023-06-01T05:56:51;20.30;96.10
13346;DHT22;6742;48.036;15.780;2023-06-01T05:59:18;20.20;95.50
13346;DHT22;6742;48.036;15.780;2023-06-01T06:01:45;20.20;96.10
13346;DHT22;6742;48.036;15.780;2023-06-01T06:04:14;20.30;96.00
13346;DHT22;6742;48.036;15.780;2023-06-01T06:11:47;20.40;96.10
13346;DHT22;6742;48.036;15.780;2023-06-01T06:14:14;20.60;96.00
13346;DHT22;6742;48.036;15.780;2023-06-01T06:16:42;20.80;95.80
13346;DHT22;6742;48.036;15.780;2023-06-01T06:19:09;21.10;95.10
13346;DHT22;6742;48.036;15.780;2023-06-01T06:21:38;21.40;94.70
13346;DHT22;6742;48.036;15.780;2023-06-01T06:24:05;21.50;94.40
13346;DHT22;6742;48.036;15.780;2023-06-01T06:26:32;21.50;94.70
13346;DHT22;6742;48.036;15.780;2023-06-01T06:28:59;21.40;93.20
13346;DHT22;6742;48.036;15.780;2023-06-01T06:31:26;21.30;93.60
13346;DHT22;6742;48.036;15.780;2023-06-01T06:33:53;21.50;93.80
13346;DHT22;6742;48.036;15.780;2023-06-01T06:36:21;21.80;94.60
13346;DHT22;6742;48.036;15.780;2023-06-01T06:38:49;22.00;93.40
13346;DHT22;6742;48.036;15.780;2023-06-01T06:41:16;22.20;92.60
13346;DHT22;6742;48.036;15.780;2023-06-01T06:43:43;22.30;93.70
13346;DHT22;6742;48.036;15.780;2023-06-01T06:46:12;22.40;93.50
13346;DHT22;6742;48.036;15.780;2023-06-01T06:48:40;22.60;92.70
13346;DHT22;6742;48.036;15.780;2023-06-01T06:51:07;22.80;92.80
13346;DHT22;6742;48.036;15.780;2023-06-01T06:53:33;23.10;93.80
13346;DHT22;6742;48.036;15.780;2023-06-01T06:56:02;23.00;90.20
13346;DHT22;6742;48.036;15.780;2023-06-01T07:03:33;23.60;91.10
13346;DHT22;6742;48.036;15.780;2023-06-01T07:06:00;23.90;91.00
13346;DHT22;6742;48.036;15.780;2023-06-01T07:08:27;24.10;89.30
13346;DHT22;6742;48.036;15.780;2023-06-01T07:10:55;24.30;90.00
13346;DHT22;6742;48.036;15.780;2023-06-01T07:13:23;24.70;90.10
13346;DHT22;6742;48.036;15.780;2023-06-01T07:15:52;25.10;90.40
13346;DHT22;6742;48.036;15.780;2023-06-01T07:18:19;25.40;90.10
13346;DHT22;6742;48.036;15.780;2023-06-01T07:20:46;25.70;88.90
13346;DHT22;6742;48.036;15.780;2023-06-01T07:23:13;25.90;89.60
13346;DHT22;6742;48.036;15.780;2023-06-01T07:25:41;26.10;88.80
13346;DHT22;6742;48.036;15.780;2023-06-01T07:28:08;26.30;85.70
13346;DHT22;6742;48.036;15.780;2023-06-01T07:30:37;26.40;87.20
13346;DHT22;6742;48.036;15.780;2023-06-01T07:33:04;26.20;82.80
13346;DHT22;6742;48.036;15.780;2023-06-01T07:35:31;26.40;86.70
13346;DHT22;6742;48.036;15.780;2023-06-01T07:37:59;26.40;86.00
13346;DHT22;6742;48.036;15.780;2023-06-01T07:40:28;26.50;81.70
13346;DHT22;6742;48.036;15.780;2023-06-01T07:42:56;26.80;81.50
13346;DHT22;6742;48.036;15.780;2023-06-01T07:45:22;27.10;81.00
13346;DHT22;6742;48.036;15.780;2023-06-01T07:47:51;27.30;79.20
13346;DHT22;6742;48.036;15.780;2023-06-01T07:50:19;27.30;78.30
13346;DHT22;6742;48.036;15.780;2023-06-01T07:52:46;27.40;79.40
13346;DHT22;6742;48.036;15.780;2023-06-01T07:55:13;27.30;79.30
13346;DHT22;6742;48.036;15.780;2023-06-01T07:57:41;27.20;75.40
13346;DHT22;6742;48.036;15.780;2023-06-01T08:00:09;27.40;79.10
13346;DHT22;6742;48.036;15.780;2023-06-01T08:02:38;27.60;74.20
13346;DHT22;6742;48.036;15.780;2023-06-01T08:05:08;27.80;72.60
13346;DHT22;6742;48.036;15.780;2023-06-01T08:07:35;28.00;72.80
13346;DHT22;6742;48.036;15.780;2023-06-01T08:10:04;28.10;76.20
13346;DHT22;6742;48.036;15.780;2023-06-01T08:12:31;27.80;72.50
13346;DHT22;6742;48.036;15.780;2023-06-01T08:14:58;27.50;72.10
13346;DHT22;6742;48.036;15.780;2023-06-01T08:17:26;27.50;73.30
13346;DHT22;6742;48.036;15.780;2023-06-01T08:19:53;27.50;76.30
13346;DHT22;6742;48.036;15.780;2023-06-01T08:22:22;27.70;75.60
13346;DHT22;6742;48.036;15.780;2023-06-01T08:24:50;27.80;72.80
13346;DHT22;6742;48.036;15.780;2023-06-01T08:27:19;27.80;70.40
13346;DHT22;6742;48.036;15.780;2023-06-01T08:29:47;28.00;75.70
13346;DHT22;6742;48.036;15.780;2023-06-01T08:32:14;28.10;75.40
13346;DHT22;6742;48.036;15.780;2023-06-01T08:34:43;28.20;75.60
13346;DHT22;6742;48.036;15.780;2023-06-01T08:37:11;28.10;70.70
13346;DHT22;6742;48.036;15.780;2023-06-01T08:39:40;28.10;71.90
13346;DHT22;6742;48.036;15.780;2023-06-01T08:42:09;27.80;71.10
13346;DHT22;6742;48.036;15.780;2023-06-01T08:44:37;28.00;74.80
13346;DHT22;6742;48.036;15.780;2023-06-01T08:47:05;28.20;72.80
13346;DHT22;6742;48.036;15.780;2023-06-01T08:49:33;28.10;71.70
13346;DHT22;6742;48.036;15.780;2023-06-01T08:52:04;28.20;75.00
13346;DHT22;6742;48.036;15.780;2023-06-01T08:54:32;28.50;72.50
13346;DHT22;6742;48.036;15.780;2023-06-01T08:57:04;28.90;73.10
13346;DHT22;6742;48.036;15.780;2023-06-01T08:59:34;29.10;69.30
13346;DHT22;6742;48.036;15.780;2023-06-01T09:02:01;29.30;70.20
13346;DHT22;6742;48.036;15.780;2023-06-01T09:04:28;29.50;69.90
13346;DHT22;6742;48.036;15.780;2023-06-01T09:06:56;29.60;68.00
13346;DHT22;6742;48.036;15.780;2023-06-01T09:09:23;29.40;69.20
13346;DHT22;6742;48.036;15.780;2023-06-01T09:12:19;28.90;69.50
13346;DHT22;6742;48.036;15.780;2023-06-01T09:14:46;28.90;67.80
13346;DHT22;6742;48.036;15.780;2023-06-01T09:17:14;28.90;69.10
13346;DHT22;6742;48.036;15.780;2023-06-01T09:19:42;29.00;69.60
13346;DHT22;6742;48.036;15.780;2023-06-01T09:22:10;29.00;68.40
13346;DHT22;6742;48.036;15.780;2023-06-01T09:24:37;29.10;72.20
13346;DHT22;6742;48.036;15.780;2023-06-01T09:27:04;28.90;71.40
13346;DHT22;6742;48.036;15.780;2023-06-01T09:29:33;29.10;72.50
13346;DHT22;6742;48.036;15.780;2023-06-01T09:32:00;29.10;72.00
13346;DHT22;6742;48.036;15.780;2023-06-01T09:34:28;29.10;68.80
13346;DHT22;6742;48.036;15.780;2023-06-01T09:36:56;29.30;66.60
13346;DHT22;6742;48.036;15.780;2023-06-01T09:39:24;29.20;71.00
13346;DHT22;6742;48.036;15.780;2023-06-01T09:41:53;29.00;72.00
13346;DHT22;6742;48.036;15.780;2023-06-01T09:44:25;29.00;72.50
13346;DHT22;6742;48.036;15.780;2023-06-01T09:46:55;28.90;68.00
13346;DHT22;6742;48.036;15.780;2023-06-01T09:49:23;28.60;68.40
13346;DHT22;6742;48.036;15.780;2023-06-01T09:51:52;28.80;74.30
13346;DHT22;6742;48.036;15.780;2023-06-01T09:54:23;28.90;71.40
13346;DHT22;6742;48.036;15.780;2023-06-01T09:56:51;28.90;72.20
13346;DHT22;6742;48.036;15.780;2023-06-01T09:59:19;28.80;69.40
13346;DHT22;6742;48.036;15.780;2023-06-01T10:01:49;28.70;71.10
13346;DHT22;6742;48.036;15.780;2023-06-01T10:04:21;28.70;70.60
13346;DHT22;6742;48.036;15.780;2023-06-01T10:06:50;28.80;69.80
13346;DHT22;6742;48.036;15.780;2023-06-01T10:09:18;29.10;75.00
13346;DHT22;6742;48.036;15.780;2023-06-01T10:11:47;29.30;71.70
13346;DHT22;6742;48.036;15.780;2023-06-01T10:14:14;29.40;71.60
13346;DHT22;6742;48.036;15.780;2023-06-01T10:16:42;29.80;67.70
13346;DHT22;6742;48.036;15.780;2023-06-01T10:19:10;29.80;71.80
13346;DHT22;6742;48.036;15.780;2023-06-01T10:21:38;29.80;68.20
13346;DHT22;6742;48.036;15.780;2023-06-01T10:24:08;29.90;67.80
13346;DHT22;6742;48.036;15.780;2023-06-01T10:26:42;29.60;66.60
13346;DHT22;6742;48.036;15.780;2023-06-01T10:29:11;29.60;69.20
13346;DHT22;6742;48.036;15.780;2023-06-01T10:31:40;29.80;75.20
13346;DHT22;6742;48.036;15.780;2023-06-01T10:34:08;29.70;70.60
13346;DHT22;6742;48.036;15.780;2023-06-01T10:37:15;29.60;70.10
13346;DHT22;6742;48.036;15.780;2023-06-01T10:39:42;29.40;69.90
13346;DHT22;6742;48.036;15.780;2023-06-01T10:42:35;29.50;71.20
13346;DHT22;6742;48.036;15.780;2023-06-01T10:45:04;29.20;72.90
13346;DHT22;6742;48.036;15.780;2023-06-01T10:47:45;29.40;75.80
13346;DHT22;6742;48.036;15.780;2023-06-01T10:50:16;29.10;69.30
13346;DHT22;6742;48.036;15.780;2023-06-01T10:52:46;29.00;77.40
13346;DHT22;6742;48.036;15.780;2023-06-01T10:55:21;29.30;70.40
13346;DHT22;6742;48.036;15.780;2023-06-01T10:57:48;29.30;70.50
13346;DHT22;6742;48.036;15.780;2023-06-01T11:00:17;29.40;76.70
13346;DHT22;6742;48.036;15.780;2023-06-01T11:02:51;29.40;78.60
13346;DHT22;6742;48.036;15.780;2023-06-01T11:05:44;29.40;74.80
13346;DHT22;6742;48.036;15.780;2023-06-01T11:08:52;29.50;76.70
13346;DHT22;6742;48.036;15.780;2023-06-01T11:11:20;29.50;70.70
13346;DHT22;6742;48.036;15.780;2023-06-01T11:14:08;29.60;74.00
13346;DHT22;6742;48.036;15.780;2023-06-01T11:16:36;29.70;68.30
13346;DHT22;6742;48.036;15.780;2023-06-01T11:19:05;29.70;69.90
13346;DHT22;6742;48.036;15.780;2023-06-01T11:21:34;29.50;75.30
13346;DHT22;6742;48.036;15.780;2023-06-01T11:24:07;29.40;75.20
13346;DHT22;6742;48.036;15.780;2023-06-01T11:26:39;29.30;76.10
13346;DHT22;6742;48.036;15.780;2023-06-01T11:29:09;29.10;74.10
13346;DHT22;6742;48.036;15.780;2023-06-01T11:31:39;29.20;74.20
13346;DHT22;6742;48.036;15.780;2023-06-01T11:34:07;29.10;72.20
13346;DHT22;6742;48.036;15.780;2023-06-01T11:36:39;28.90;71.20
13346;DHT22;6742;48.036;15.780;2023-06-01T11:39:21;29.20;78.90
13346;DHT22;6742;48.036;15.780;2023-06-01T11:41:49;29.40;73.70
13346;DHT22;6742;48.036;15.780;2023-06-01T11:44:17;29.60;72.20
13346;DHT22;6742;48.036;15.780;2023-06-01T11:46:51;29.60;71.00
13346;DHT22;6742;48.036;15.780;2023-06-01T11:49:18;29.70;73.90
13346;DHT22;6742;48.036;15.780;2023-06-01T11:51:45;29.70;68.60
13346;DHT22;6742;48.036;15.780;2023-06-01T11:54:12;29.70;74.30
13346;DHT22;6742;48.036;15.780;2023-06-01T11:56:41;29.70;71.10
13346;DHT22;6742;48.036;15.780;2023-06-01T11:59:09;29.60;71.20
13346;DHT22;6742;48.036;15.780;2023-06-01T12:01:42;29.40;71.40
13346;DHT22;6742;48.036;15.780;2023-06-01T12:04:12;29.10;71.30
13346;DHT22;6742;48.036;15.780;2023-06-01T12:06:39;29.20;71.60
13346;DHT22;6742;48.036;15.780;2023-06-01T12:09:06;29.10;77.20
13346;DHT22;6742;48.036;15.780;2023-06-01T12:11:34;29.30;78.40
13346;DHT22;6742;48.036;15.780;2023-06-01T12:14:04;29.30;72.30
13346;DHT22;6742;48.036;15.780;2023-06-01T12:16:53;29.20;74.20
13346;DHT22;6742;48.036;15.780;2023-06-01T12:19:21;29.10;80.20
13346;DHT22;6742;48.036;15.780;2023-06-01T12:21:49;29.10;80.30
13346;DHT22;6742;48.036;15.780;2023-06-01T12:24:18;29.00;73.80
13346;DHT22;6742;48.036;15.780;2023-06-01T12:26:45;28.90;76.40
13346;DHT22;6742;48.036;15.780;2023-06-01T12:29:13;28.90;77.50
13346;DHT22;6742;48.036;15.780;2023-06-01T12:31:52;29.00;78.80
13346;DHT22;6742;48.036;15.780;2023-06-01T12:34:20;29.10;76.90
13346;DHT22;6742;48.036;15.780;2023-06-01T12:36:47;28.70;73.80
13346;DHT22;6742;48.036;15.780;2023-06-01T12:39:14;28.50;79.30
13346;DHT22;6742;48.036;15.780;2023-06-01T12:41:48;28.50;77.50
13346;DHT22;6742;48.036;15.780;2023-06-01T12:44:21;28.50;75.30
13346;DHT22;6742;48.036;15.780;2023-06-01T12:46:55;28.40;77.10
13346;DHT22;6742;48.036;15.780;2023-06-01T12:49:23;28.30;80.70
13346;DHT22;6742;48.036;15.780;2023-06-01T12:51:50;28.50;78.60
13346;DHT22;6742;48.036;15.780;2023-06-01T12:54:17;28.60;77.20
13346;DHT22;6742;48.036;15.780;2023-06-01T12:56:45;28.70;75.30
13346;DHT22;6742;48.036;15.780;2023-06-01T12:59:13;28.60;76.90
13346;DHT22;6742;48.036;15.780;2023-06-01T13:01:42;28.50;80.80
13346;DHT22;6742;48.036;15.780;2023-06-01T13:04:09;28.20;75.00
13346;DHT22;6742;48.036;15.780;2023-06-01T13:06:36;28.20;76.80
13346;DHT22;6742;48.036;15.780;2023-06-01T13:09:05;28.00;77.60
13346;DHT22;6742;48.036;15.780;2023-06-01T13:11:33;28.10;76.20
13346;DHT22;6742;48.036;15.780;2023-06-01T13:14:00;28.10;78.50
13346;DHT22;6742;48.036;15.780;2023-06-01T13:16:27;27.90;77.70
13346;DHT22;6742;48.036;15.780;2023-06-01T13:18:56;27.80;81.20
13346;DHT22;6742;48.036;15.780;2023-06-01T13:21:23;27.90;79.80
13346;DHT22;6742;48.036;15.780;2023-06-01T13:23:50;27.90;81.00
13346;DHT22;6742;48.036;15.780;2023-06-01T13:26:17;28.00;79.80
13346;DHT22;6742;48.036;15.780;2023-06-01T13:28:44;28.00;79.90
13346;DHT22;6742;48.036;15.780;2023-06-01T13:31:11;27.60;76.00
13346;DHT22;6742;48.036;15.780;2023-06-01T13:33:39;27.30;80.90
13346;DHT22;6742;48.036;15.780;2023-06-01T13:36:07;27.20;82.60
13346;DHT22;6742;48.036;15.780;2023-06-01T13:38:35;27.10;78.30
13346;DHT22;6742;48.036;15.780;2023-06-01T13:41:02;27.00;82.50
13346;DHT22;6742;48.036;15.780;2023-06-01T13:43:29;27.00;81.10
13346;DHT22;6742;48.036;15.780;2023-06-01T13:45:55;27.00;81.30
13346;DHT22;6742;48.036;15.780;2023-06-01T13:48:22;27.10;79.00
13346;DHT22;6742;48.036;15.780;2023-06-01T13:50:50;27.10;81.00
13346;DHT22;6742;48.036;15.780;2023-06-01T13:53:29;27.10;81.60
13346;DHT22;6742;48.036;15.780;2023-06-01T13:55:56;27.20;81.90
13346;DHT22;6742;48.036;15.780;2023-06-01T13:58:23;27.10;80.70
13346;DHT22;6742;48.036;15.780;2023-06-01T14:00:50;27.10;80.90
13346;DHT22;6742;48.036;15.780;2023-06-01T14:03:17;27.00;81.60
13346;DHT22;6742;48.036;15.780;2023-06-01T14:05:44;27.00;81.80
13346;DHT22;6742;48.036;15.780;2023-06-01T14:08:11;26.80;84.60
13346;DHT22;6742;48.036;15.780;2023-06-01T14:10:40;26.70;79.50
13346;DHT22;6742;48.036;15.780;2023-06-01T14:13:07;26.50;81.70
13346;DHT22;6742;48.036;15.780;2023-06-01T14:15:33;26.50;85.10
13346;DHT22;6742;48.036;15.780;2023-06-01T14:18:01;26.50;81.60
13346;DHT22;6742;48.036;15.780;2023-06-01T14:20:30;26.70;81.80
13346;DHT22;6742;48.036;15.780;2023-06-01T14:22:58;26.70;79.60
13346;DHT22;6742;48.036;15.780;2023-06-01T14:25:26;26.70;81.40
13346;DHT22;6742;48.036;15.780;2023-06-01T14:27:54;26.60;81.30
13346;DHT22;6742;48.036;15.780;2023-06-01T14:30:21;26.40;82.60
13346;DHT22;6742;48.036;15.780;2023-06-01T14:32:49;26.30;83.10
13346;DHT22;6742;48.036;15.780;2023-06-01T14:35:16;26.30;83.80
13346;DHT22;6742;48.036;15.780;2023-06-01T14:37:44;26.20;80.40
13346;DHT22;6742;48.036;15.780;2023-06-01T14:40:11;26.10;84.80
13346;DHT22;6742;48.036;15.780;2023-06-01T14:42:38;26.10;84.10
13346;DHT22;6742;48.036;15.780;2023-06-01T14:45:07;26.00;80.90
13346;DHT22;6742;48.036;15.780;2023-06-01T14:47:36;26.00;82.00
13346;DHT22;6742;48.036;15.780;2023-06-01T14:50:07;26.00;81.40
13346;DHT22;6742;48.036;15.780;2023-06-01T14:52:34;26.00;82.80
13346;DHT22;6742;48.036;15.780;2023-06-01T14:55:01;26.00;82.90
13346;DHT22;6742;48.036;15.780;2023-06-01T14:57:28;26.00;80.60
13346;DHT22;6742;48.036;15.780;2023-06-01T14:59:55;26.00;81.60
13346;DHT22;6742;48.036;15.780;2023-06-01T15:02:23;26.10;81.50
13346;DHT22;6742;48.036;15.780;2023-06-01T15:04:50;26.00;79.50
13346;DHT22;6742;48.036;15.780;2023-06-01T15:07:17;26.00;81.60
13346;DHT22;6742;48.036;15.780;2023-06-01T15:09:44;26.10;80.80
13346;DHT22;6742;48.036;15.780;2023-06-01T15:12:13;26.10;83.00
13346;DHT22;6742;48.036;15.780;2023-06-01T15:14:40;26.10;79.70
13346;DHT22;6742;48.036;15.780;2023-06-01T15:17:07;26.10;82.30
13346;DHT22;6742;48.036;15.780;2023-06-01T15:19:35;26.10;84.50
13346;DHT22;6742;48.036;15.780;2023-06-01T15:22:02;26.20;84.20
13346;DHT22;6742;48.036;15.780;2023-06-01T15:24:29;26.20;81.20
13346;DHT22;6742;48.036;15.780;2023-06-01T15:26:56;26.30;83.40
13346;DHT22;6742;48.036;15.780;2023-06-01T15:29:23;26.20;83.50
13346;DHT22;6742;48.036;15.780;2023-06-01T15:31:50;26.10;82.70
13346;DHT22;6742;48.036;15.780;2023-06-01T15:34:17;26.00;82.50
13346;DHT22;6742;48.036;15.780;2023-06-01T15:36:45;25.80;86.10
13346;DHT22;6742;48.036;15.780;2023-06-01T15:39:12;25.60;82.00
13346;DHT22;6742;48.036;15.780;2023-06-01T15:41:40;25.50;84.50
13346;DHT22;6742;48.036;15.780;2023-06-01T15:44:08;25.40;82.10
13346;DHT22;6742;48.036;15.780;2023-06-01T15:46:35;25.40;84.20
13346;DHT22;6742;48.036;15.780;2023-06-01T15:49:02;25.40;85.90
13346;DHT22;6742;48.036;15.780;2023-06-01T15:51:29;25.50;83.30
13346;DHT22;6742;48.036;15.780;2023-06-01T15:53:57;25.60;85.70